Thursday, September 20, 2018, 4:23 PM EDT
Back to Local

KGON, Groton/new London Airport

Location: Groton, CT, United States Lat: 41.333
Local Time: 4:23 PM EDT (20:23 GMT) Lon: -72.05
Time Zone: US/Eastern Elev: 9 ft

Show me the last for .
Show Decoded

2018-09-20 15:56 METAR KGON 201956Z 14007KT 10SM OVC049 22/14 A3022 RMK AO2 SLP231 T02170144 =
2018-09-20 14:56 METAR KGON 201856Z VRB04KT 10SM FEW036 SCT050 22/14 A3021 RMK AO2 SLP228
                 T02220139 =
2018-09-20 13:56 METAR KGON 201756Z 06009KT 10SM BKN049 22/13 A3022 RMK AO2 SLP233 T02170133
                 10228 20161 58006 =
2018-09-20 12:56 METAR KGON 201656Z 04009KT 10SM FEW035 SCT048 22/14 A3023 RMK AO2 SLP235
                 T02220144 =
2018-09-20 11:56 METAR KGON 201556Z 02011KT 10SM FEW029 22/14 A3024 RMK AO2 SLP239 T02170144 =
2018-09-20 10:56 METAR KGON 201456Z 02012KT 10SM FEW023 20/14 A3024 RMK AO2 SLP239 T02000139
                 53022 =
2018-09-20 09:56 METAR KGON 201356Z 01011KT 10SM CLR 19/14 A3021 RMK AO2 SLP230 T01890139 =
2018-09-20 08:56 METAR KGON 201256Z 03010KT 10SM CLR 18/14 A3020 RMK AO2 SLP227 T01780139 =
2018-09-20 07:56 METAR KGON 201156Z 01010KT 10SM CLR 16/13 A3018 RMK AO2 SLP218 T01610133 10161
                 20144 53021 =
2018-09-20 06:56 METAR KGON 201056Z 01006KT 10SM CLR 15/13 A3015 RMK AO2 SLP210 T01500133 =
2018-09-20 05:56 METAR KGON 200956Z AUTO 02006KT 10SM OVC049 16/13 A3013 RMK AO2 SLP203 T01560133
                 =
2018-09-20 04:56 METAR KGON 200856Z AUTO 02007KT 10SM OVC047 16/13 A3011 RMK AO2 SLP197 T01560133
                 53004 =
2018-09-20 03:56 METAR KGON 200756Z AUTO 36006KT 10SM OVC044 15/13 A3011 RMK AO2 SLP197 T01500133
                 =
2018-09-20 02:56 METAR KGON 200656Z AUTO 02006KT 10SM CLR 14/13 A3010 RMK AO2 SLP192 T01440128 =
2018-09-20 01:56 METAR KGON 200556Z AUTO 35006KT 10SM CLR 15/13 A3010 RMK AO2 SLP193 T01500128
                 10178 20150 51009 =
2018-09-20 00:56 METAR KGON 200456Z AUTO 03008KT 10SM OVC050 16/13 A3009 RMK AO2 SLP190 T01610133
                 402280156 =
2018-09-19 23:56 METAR KGON 200356Z AUTO 02005KT 10SM OVC055 16/13 A3009 RMK AO2 SLP188 T01610128
                 =
2018-09-19 22:56 METAR KGON 200256Z AUTO 03008KT 10SM OVC055 16/13 A3007 RMK AO2 SLP183 T01560128
                 51020 =
2018-09-19 21:56 METAR KGON 200156Z 04011KT 10SM BKN055 16/13 A3006 RMK AO2 SLP178 T01610128 =
2018-09-19 20:56 METAR KGON 200056Z 04013KT 10SM OVC055 17/13 A3004 RMK AO2 SLP172 T01670133 =
2018-09-19 19:56 METAR KGON 192356Z 06009KT 10SM FEW016 18/15 A3001 RMK AO2 SLP163 T01780150
                 10228 20178 51011 =
2018-09-19 19:51 METAR KGON 192351Z 05008KT 10SM SCT016 18/15 A3001 RMK AO2 =
2018-09-19 18:56 METAR KGON 192256Z 05012KT 10SM BKN018 19/16 A2999 RMK AO2 SLP155 T01890156 =
2018-09-19 18:41 METAR KGON 192241Z 03009KT 10SM BKN020 19/15 A2999 RMK AO2 T01890150 =
2018-09-19 18:32 METAR KGON 192232Z 04010KT 10SM SCT020 19/16 A2999 RMK AO2 T01890156 =
2018-09-19 17:56 METAR KGON 192156Z 02009KT 10SM OVC019 20/16 A2998 RMK AO2 SLP152 T02000161 =
2018-09-19 16:56 METAR KGON 192056Z 05011KT 10SM OVC020 21/17 A2994 RMK AO2 SLP137 T02110167
                 53009 =

Support USWX by starting your Amazon purchase here.